sensor_id;sensor_type;location;lat;lon;timestamp;P1;durP1;ratioP1;P2;durP2;ratioP2
1811;SDS011;904;47.814;11.134;2022-10-17T00:01:54;7.13;;;2.92;;
1811;SDS011;904;47.814;11.134;2022-10-17T00:04:22;5.50;;;2.72;;
1811;SDS011;904;47.814;11.134;2022-10-17T00:06:49;5.95;;;2.40;;
1811;SDS011;904;47.814;11.134;2022-10-17T00:09:17;6.47;;;3.05;;
1811;SDS011;904;47.814;11.134;2022-10-17T00:11:45;5.75;;;3.83;;
1811;SDS011;904;47.814;11.134;2022-10-17T00:14:13;8.73;;;4.70;;
1811;SDS011;904;47.814;11.134;2022-10-17T00:16:40;6.55;;;4.32;;
1811;SDS011;904;47.814;11.134;2022-10-17T00:19:08;5.38;;;3.53;;
1811;SDS011;904;47.814;11.134;2022-10-17T00:21:35;5.60;;;3.88;;
1811;SDS011;904;47.814;11.134;2022-10-17T00:24:03;6.35;;;4.00;;
1811;SDS011;904;47.814;11.134;2022-10-17T00:26:30;5.03;;;3.42;;
1811;SDS011;904;47.814;11.134;2022-10-17T00:28:59;4.25;;;3.15;;
1811;SDS011;904;47.814;11.134;2022-10-17T00:31:26;4.93;;;3.78;;
1811;SDS011;904;47.814;11.134;2022-10-17T00:33:54;6.13;;;3.63;;
1811;SDS011;904;47.814;11.134;2022-10-17T00:36:22;6.65;;;3.53;;
1811;SDS011;904;47.814;11.134;2022-10-17T00:38:51;5.80;;;3.35;;
1811;SDS011;904;47.814;11.134;2022-10-17T00:41:20;4.53;;;3.05;;
1811;SDS011;904;47.814;11.134;2022-10-17T00:43:48;5.15;;;2.63;;
1811;SDS011;904;47.814;11.134;2022-10-17T00:46:18;5.50;;;3.00;;
1811;SDS011;904;47.814;11.134;2022-10-17T00:48:46;5.93;;;3.10;;
1811;SDS011;904;47.814;11.134;2022-10-17T00:51:14;4.10;;;3.08;;
1811;SDS011;904;47.814;11.134;2022-10-17T00:53:42;3.70;;;3.08;;
1811;SDS011;904;47.814;11.134;2022-10-17T00:56:10;8.18;;;2.63;;
1811;SDS011;904;47.814;11.134;2022-10-17T00:58:37;5.30;;;2.95;;
1811;SDS011;904;47.814;11.134;2022-10-17T01:01:05;7.57;;;2.78;;
1811;SDS011;904;47.814;11.134;2022-10-17T01:03:33;3.33;;;2.05;;
1811;SDS011;904;47.814;11.134;2022-10-17T01:06:01;6.13;;;3.03;;
1811;SDS011;904;47.814;11.134;2022-10-17T01:08:29;6.00;;;3.47;;
1811;SDS011;904;47.814;11.134;2022-10-17T01:10:58;4.22;;;3.22;;
1811;SDS011;904;47.814;11.134;2022-10-17T01:13:29;6.03;;;3.67;;
1811;SDS011;904;47.814;11.134;2022-10-17T01:16:02;5.40;;;2.75;;
1811;SDS011;904;47.814;11.134;2022-10-17T01:18:37;3.60;;;2.83;;
1811;SDS011;904;47.814;11.134;2022-10-17T01:26:51;5.93;;;3.60;;
1811;SDS011;904;47.814;11.134;2022-10-17T01:29:26;3.60;;;1.80;;
1811;SDS011;904;47.814;11.134;2022-10-17T01:32:00;3.90;;;1.98;;
1811;SDS011;904;47.814;11.134;2022-10-17T01:34:29;4.28;;;2.15;;
1811;SDS011;904;47.814;11.134;2022-10-17T01:37:01;3.50;;;2.10;;
1811;SDS011;904;47.814;11.134;2022-10-17T01:39:38;4.90;;;2.20;;
1811;SDS011;904;47.814;11.134;2022-10-17T01:42:09;3.88;;;2.17;;
1811;SDS011;904;47.814;11.134;2022-10-17T01:44:38;3.30;;;2.10;;
1811;SDS011;904;47.814;11.134;2022-10-17T01:47:11;4.28;;;1.67;;
1811;SDS011;904;47.814;11.134;2022-10-17T01:49:39;4.15;;;1.98;;
1811;SDS011;904;47.814;11.134;2022-10-17T01:52:09;3.15;;;2.13;;
1811;SDS011;904;47.814;11.134;2022-10-17T01:54:39;3.15;;;1.92;;
1811;SDS011;904;47.814;11.134;2022-10-17T01:57:09;6.20;;;2.08;;
1811;SDS011;904;47.814;11.134;2022-10-17T01:59:38;7.00;;;2.40;;
1811;SDS011;904;47.814;11.134;2022-10-17T02:02:06;3.00;;;1.98;;
1811;SDS011;904;47.814;11.134;2022-10-17T02:04:37;3.05;;;2.03;;
1811;SDS011;904;47.814;11.134;2022-10-17T02:07:05;3.28;;;1.75;;
1811;SDS011;904;47.814;11.134;2022-10-17T02:09:32;6.88;;;2.35;;
1811;SDS011;904;47.814;11.134;2022-10-17T02:12:05;2.30;;;1.35;;
1811;SDS011;904;47.814;11.134;2022-10-17T02:14:36;4.18;;;1.98;;
1811;SDS011;904;47.814;11.134;2022-10-17T02:17:08;5.38;;;2.10;;
1811;SDS011;904;47.814;11.134;2022-10-17T02:19:45;4.30;;;2.35;;
1811;SDS011;904;47.814;11.134;2022-10-17T02:22:18;2.60;;;1.58;;
1811;SDS011;904;47.814;11.134;2022-10-17T02:24:51;3.25;;;2.10;;
1811;SDS011;904;47.814;11.134;2022-10-17T02:27:23;3.08;;;2.00;;
1811;SDS011;904;47.814;11.134;2022-10-17T02:29:54;4.55;;;2.35;;
1811;SDS011;904;47.814;11.134;2022-10-17T02:32:23;3.80;;;2.20;;
1811;SDS011;904;47.814;11.134;2022-10-17T02:34:54;5.78;;;2.45;;
1811;SDS011;904;47.814;11.134;2022-10-17T02:37:24;6.20;;;2.78;;
1811;SDS011;904;47.814;11.134;2022-10-17T02:39:52;3.35;;;2.25;;
1811;SDS011;904;47.814;11.134;2022-10-17T02:42:20;6.90;;;2.42;;
1811;SDS011;904;47.814;11.134;2022-10-17T02:44:49;4.47;;;2.60;;
1811;SDS011;904;47.814;11.134;2022-10-17T02:47:18;6.70;;;2.20;;
1811;SDS011;904;47.814;11.134;2022-10-17T02:49:49;9.68;;;1.95;;
1811;SDS011;904;47.814;11.134;2022-10-17T02:52:19;3.67;;;2.17;;
1811;SDS011;904;47.814;11.134;2022-10-17T02:54:50;3.03;;;2.10;;
1811;SDS011;904;47.814;11.134;2022-10-17T02:57:20;4.32;;;2.22;;
1811;SDS011;904;47.814;11.134;2022-10-17T02:59:48;5.57;;;3.53;;
1811;SDS011;904;47.814;11.134;2022-10-17T03:02:16;4.80;;;2.90;;
1811;SDS011;904;47.814;11.134;2022-10-17T03:04:44;3.67;;;2.67;;
1811;SDS011;904;47.814;11.134;2022-10-17T03:07:12;6.55;;;2.42;;
1811;SDS011;904;47.814;11.134;2022-10-17T03:09:41;5.85;;;2.47;;
1811;SDS011;904;47.814;11.134;2022-10-17T03:12:08;3.38;;;2.45;;
1811;SDS011;904;47.814;11.134;2022-10-17T03:14:35;2.90;;;2.20;;
1811;SDS011;904;47.814;11.134;2022-10-17T03:17:03;3.40;;;2.40;;
1811;SDS011;904;47.814;11.134;2022-10-17T03:19:30;5.00;;;2.30;;
1811;SDS011;904;47.814;11.134;2022-10-17T03:21:58;5.15;;;2.78;;
1811;SDS011;904;47.814;11.134;2022-10-17T03:24:25;5.68;;;2.90;;
1811;SDS011;904;47.814;11.134;2022-10-17T03:26:54;10.18;;;3.25;;
1811;SDS011;904;47.814;11.134;2022-10-17T03:29:22;4.43;;;2.47;;
1811;SDS011;904;47.814;11.134;2022-10-17T03:31:49;9.15;;;2.28;;
1811;SDS011;904;47.814;11.134;2022-10-17T03:34:16;6.22;;;2.03;;
1811;SDS011;904;47.814;11.134;2022-10-17T03:36:44;3.00;;;1.90;;
1811;SDS011;904;47.814;11.134;2022-10-17T03:39:11;3.38;;;1.67;;
1811;SDS011;904;47.814;11.134;2022-10-17T03:41:39;3.30;;;2.20;;
1811;SDS011;904;47.814;11.134;2022-10-17T03:44:07;2.60;;;1.60;;
1811;SDS011;904;47.814;11.134;2022-10-17T03:46:35;3.17;;;1.75;;
1811;SDS011;904;47.814;11.134;2022-10-17T03:49:03;3.15;;;2.20;;
1811;SDS011;904;47.814;11.134;2022-10-17T03:51:31;4.35;;;2.20;;
1811;SDS011;904;47.814;11.134;2022-10-17T03:53:59;3.50;;;2.65;;
1811;SDS011;904;47.814;11.134;2022-10-17T03:56:26;4.57;;;2.72;;
1811;SDS011;904;47.814;11.134;2022-10-17T03:58:54;3.42;;;2.67;;
1811;SDS011;904;47.814;11.134;2022-10-17T04:01:23;6.97;;;3.70;;
1811;SDS011;904;47.814;11.134;2022-10-17T04:03:51;5.10;;;3.67;;
1811;SDS011;904;47.814;11.134;2022-10-17T04:06:18;4.47;;;2.63;;
1811;SDS011;904;47.814;11.134;2022-10-17T04:08:46;3.15;;;2.78;;
1811;SDS011;904;47.814;11.134;2022-10-17T04:11:14;4.50;;;3.40;;
1811;SDS011;904;47.814;11.134;2022-10-17T04:13:42;4.55;;;3.00;;
1811;SDS011;904;47.814;11.134;2022-10-17T04:16:11;4.13;;;2.72;;
1811;SDS011;904;47.814;11.134;2022-10-17T04:18:40;3.78;;;2.40;;
1811;SDS011;904;47.814;11.134;2022-10-17T04:21:08;4.63;;;2.92;;
1811;SDS011;904;47.814;11.134;2022-10-17T04:23:35;9.13;;;3.47;;
1811;SDS011;904;47.814;11.134;2022-10-17T04:26:03;3.22;;;2.28;;
1811;SDS011;904;47.814;11.134;2022-10-17T04:28:32;2.50;;;1.65;;
1811;SDS011;904;47.814;11.134;2022-10-17T04:31:00;3.60;;;1.55;;
1811;SDS011;904;47.814;11.134;2022-10-17T04:33:28;3.10;;;1.98;;
1811;SDS011;904;47.814;11.134;2022-10-17T04:35:58;2.85;;;2.25;;
1811;SDS011;904;47.814;11.134;2022-10-17T04:38:27;3.22;;;2.20;;
1811;SDS011;904;47.814;11.134;2022-10-17T04:40:56;4.70;;;3.13;;
1811;SDS011;904;47.814;11.134;2022-10-17T04:43:24;3.45;;;2.40;;
1811;SDS011;904;47.814;11.134;2022-10-17T04:45:51;3.00;;;2.00;;
1811;SDS011;904;47.814;11.134;2022-10-17T04:48:19;3.60;;;2.45;;
1811;SDS011;904;47.814;11.134;2022-10-17T04:50:52;5.30;;;2.35;;
1811;SDS011;904;47.814;11.134;2022-10-17T04:53:22;3.67;;;2.70;;
1811;SDS011;904;47.814;11.134;2022-10-17T04:55:49;3.83;;;3.03;;
1811;SDS011;904;47.814;11.134;2022-10-17T04:58:17;7.03;;;4.00;;
1811;SDS011;904;47.814;11.134;2022-10-17T05:00:44;6.82;;;3.80;;
1811;SDS011;904;47.814;11.134;2022-10-17T05:03:12;4.43;;;3.38;;
1811;SDS011;904;47.814;11.134;2022-10-17T05:05:40;4.68;;;3.40;;
1811;SDS011;904;47.814;11.134;2022-10-17T05:08:08;10.20;;;3.42;;
1811;SDS011;904;47.814;11.134;2022-10-17T05:10:38;4.30;;;3.22;;
1811;SDS011;904;47.814;11.134;2022-10-17T05:13:06;4.55;;;3.60;;
1811;SDS011;904;47.814;11.134;2022-10-17T05:15:34;5.40;;;4.65;;
1811;SDS011;904;47.814;11.134;2022-10-17T05:18:01;5.93;;;4.00;;
1811;SDS011;904;47.814;11.134;2022-10-17T05:20:29;4.88;;;3.70;;
1811;SDS011;904;47.814;11.134;2022-10-17T05:22:57;5.47;;;4.28;;
1811;SDS011;904;47.814;11.134;2022-10-17T05:25:25;3.78;;;2.42;;
1811;SDS011;904;47.814;11.134;2022-10-17T05:27:54;4.63;;;3.30;;
1811;SDS011;904;47.814;11.134;2022-10-17T05:30:21;4.03;;;2.45;;
1811;SDS011;904;47.814;11.134;2022-10-17T05:32:50;3.65;;;2.67;;
1811;SDS011;904;47.814;11.134;2022-10-17T05:35:18;4.80;;;3.33;;
1811;SDS011;904;47.814;11.134;2022-10-17T05:37:46;7.05;;;3.75;;
1811;SDS011;904;47.814;11.134;2022-10-17T05:40:14;5.75;;;3.47;;
1811;SDS011;904;47.814;11.134;2022-10-17T05:42:44;6.20;;;4.00;;
1811;SDS011;904;47.814;11.134;2022-10-17T05:45:13;7.95;;;3.42;;
1811;SDS011;904;47.814;11.134;2022-10-17T05:47:41;6.28;;;3.47;;
1811;SDS011;904;47.814;11.134;2022-10-17T05:50:09;3.88;;;2.80;;
1811;SDS011;904;47.814;11.134;2022-10-17T05:52:36;7.90;;;3.67;;
1811;SDS011;904;47.814;11.134;2022-10-17T05:55:04;5.32;;;3.30;;
1811;SDS011;904;47.814;11.134;2022-10-17T05:57:32;5.55;;;4.22;;
1811;SDS011;904;47.814;11.134;2022-10-17T06:00:00;4.72;;;3.60;;
1811;SDS011;904;47.814;11.134;2022-10-17T06:02:29;10.85;;;3.45;;
1811;SDS011;904;47.814;11.134;2022-10-17T06:04:57;3.97;;;2.60;;
1811;SDS011;904;47.814;11.134;2022-10-17T06:07:24;7.18;;;4.20;;
1811;SDS011;904;47.814;11.134;2022-10-17T06:09:51;7.05;;;3.47;;
1811;SDS011;904;47.814;11.134;2022-10-17T06:12:19;8.45;;;5.55;;
1811;SDS011;904;47.814;11.134;2022-10-17T06:14:46;8.23;;;4.00;;
1811;SDS011;904;47.814;11.134;2022-10-17T06:17:13;8.23;;;4.40;;
1811;SDS011;904;47.814;11.134;2022-10-17T06:19:42;9.25;;;5.45;;
1811;SDS011;904;47.814;11.134;2022-10-17T06:22:09;8.43;;;5.75;;
1811;SDS011;904;47.814;11.134;2022-10-17T06:24:37;6.75;;;5.55;;
1811;SDS011;904;47.814;11.134;2022-10-17T06:27:04;8.68;;;5.50;;
1811;SDS011;904;47.814;11.134;2022-10-17T06:29:31;9.80;;;5.00;;
1811;SDS011;904;47.814;11.134;2022-10-17T06:31:58;8.35;;;5.53;;
1811;SDS011;904;47.814;11.134;2022-10-17T06:34:26;6.65;;;4.38;;
1811;SDS011;904;47.814;11.134;2022-10-17T06:36:54;7.53;;;4.30;;
1811;SDS011;904;47.814;11.134;2022-10-17T06:39:22;13.68;;;4.13;;
1811;SDS011;904;47.814;11.134;2022-10-17T06:41:51;10.25;;;4.07;;
1811;SDS011;904;47.814;11.134;2022-10-17T06:44:23;7.10;;;3.83;;
1811;SDS011;904;47.814;11.134;2022-10-17T06:46:55;4.18;;;2.80;;
1811;SDS011;904;47.814;11.134;2022-10-17T06:49:22;4.05;;;2.67;;
1811;SDS011;904;47.814;11.134;2022-10-17T06:51:52;4.07;;;2.13;;
1811;SDS011;904;47.814;11.134;2022-10-17T06:54:21;6.60;;;2.90;;
1811;SDS011;904;47.814;11.134;2022-10-17T06:56:48;8.05;;;3.55;;
1811;SDS011;904;47.814;11.134;2022-10-17T06:59:15;9.52;;;2.90;;
1811;SDS011;904;47.814;11.134;2022-10-17T07:01:45;4.07;;;2.75;;
1811;SDS011;904;47.814;11.134;2022-10-17T07:04:12;5.13;;;2.80;;
1811;SDS011;904;47.814;11.134;2022-10-17T07:06:40;4.47;;;3.17;;
1811;SDS011;904;47.814;11.134;2022-10-17T07:09:07;4.40;;;3.40;;
1811;SDS011;904;47.814;11.134;2022-10-17T07:11:36;4.27;;;3.03;;
1811;SDS011;904;47.814;11.134;2022-10-17T07:14:04;4.87;;;2.80;;
1811;SDS011;904;47.814;11.134;2022-10-17T07:16:31;4.20;;;2.60;;
1811;SDS011;904;47.814;11.134;2022-10-17T07:18:59;7.10;;;3.97;;
1811;SDS011;904;47.814;11.134;2022-10-17T07:21:26;4.77;;;3.40;;
1811;SDS011;904;47.814;11.134;2022-10-17T07:23:53;7.27;;;3.23;;
1811;SDS011;904;47.814;11.134;2022-10-17T07:26:20;4.77;;;3.17;;
1811;SDS011;904;47.814;11.134;2022-10-17T07:28:50;3.07;;;2.40;;
1811;SDS011;904;47.814;11.134;2022-10-17T07:31:18;5.90;;;2.67;;
1811;SDS011;904;47.814;11.134;2022-10-17T07:33:46;3.90;;;2.70;;
1811;SDS011;904;47.814;11.134;2022-10-17T07:36:14;5.90;;;2.60;;
1811;SDS011;904;47.814;11.134;2022-10-17T07:38:43;5.23;;;2.73;;
1811;SDS011;904;47.814;11.134;2022-10-17T07:41:11;3.70;;;2.43;;
1811;SDS011;904;47.814;11.134;2022-10-17T07:43:38;6.50;;;3.90;;
1811;SDS011;904;47.814;11.134;2022-10-17T07:46:08;9.70;;;3.07;;
1811;SDS011;904;47.814;11.134;2022-10-17T07:48:36;4.30;;;2.73;;
1811;SDS011;904;47.814;11.134;2022-10-17T07:51:04;6.00;;;3.20;;
1811;SDS011;904;47.814;11.134;2022-10-17T07:53:33;5.40;;;2.97;;
1811;SDS011;904;47.814;11.134;2022-10-17T07:56:02;6.47;;;3.33;;
1811;SDS011;904;47.814;11.134;2022-10-17T07:58:30;9.10;;;3.27;;
1811;SDS011;904;47.814;11.134;2022-10-17T08:00:59;5.07;;;3.00;;
1811;SDS011;904;47.814;11.134;2022-10-17T08:03:28;6.63;;;3.03;;
1811;SDS011;904;47.814;11.134;2022-10-17T08:05:56;5.87;;;2.70;;
1811;SDS011;904;47.814;11.134;2022-10-17T08:08:24;6.97;;;3.50;;
1811;SDS011;904;47.814;11.134;2022-10-17T08:10:52;4.47;;;3.23;;
1811;SDS011;904;47.814;11.134;2022-10-17T08:13:19;4.60;;;2.83;;
1811;SDS011;904;47.814;11.134;2022-10-17T08:15:46;4.37;;;3.33;;
1811;SDS011;904;47.814;11.134;2022-10-17T08:18:14;4.10;;;3.20;;
1811;SDS011;904;47.814;11.134;2022-10-17T08:20:43;4.90;;;2.97;;
1811;SDS011;904;47.814;11.134;2022-10-17T08:23:10;4.07;;;2.87;;
1811;SDS011;904;47.814;11.134;2022-10-17T08:25:37;6.70;;;3.53;;
1811;SDS011;904;47.814;11.134;2022-10-17T08:28:05;5.13;;;3.07;;
1811;SDS011;904;47.814;11.134;2022-10-17T08:30:32;5.47;;;3.23;;
1811;SDS011;904;47.814;11.134;2022-10-17T08:32:59;7.53;;;2.60;;
1811;SDS011;904;47.814;11.134;2022-10-17T08:35:26;4.30;;;3.33;;
1811;SDS011;904;47.814;11.134;2022-10-17T08:37:54;5.10;;;2.97;;
1811;SDS011;904;47.814;11.134;2022-10-17T08:40:26;3.80;;;2.80;;
1811;SDS011;904;47.814;11.134;2022-10-17T08:43:10;4.90;;;3.17;;
1811;SDS011;904;47.814;11.134;2022-10-17T08:45:54;6.80;;;2.60;;
1811;SDS011;904;47.814;11.134;2022-10-17T08:48:27;4.77;;;2.63;;
1811;SDS011;904;47.814;11.134;2022-10-17T08:50:58;3.57;;;2.50;;
1811;SDS011;904;47.814;11.134;2022-10-17T08:53:32;6.47;;;2.60;;
1811;SDS011;904;47.814;11.134;2022-10-17T08:56:04;6.93;;;3.07;;
1811;SDS011;904;47.814;11.134;2022-10-17T08:58:44;4.67;;;2.43;;
1811;SDS011;904;47.814;11.134;2022-10-17T09:01:13;3.80;;;2.30;;
1811;SDS011;904;47.814;11.134;2022-10-17T09:07:00;4.20;;;2.60;;
1811;SDS011;904;47.814;11.134;2022-10-17T09:09:35;6.47;;;2.20;;
1811;SDS011;904;47.814;11.134;2022-10-17T09:12:14;4.00;;;2.20;;
1811;SDS011;904;47.814;11.134;2022-10-17T09:15:02;3.93;;;2.83;;
1811;SDS011;904;47.814;11.134;2022-10-17T09:17:46;4.27;;;2.77;;
1811;SDS011;904;47.814;11.134;2022-10-17T09:20:19;4.50;;;3.57;;
1811;SDS011;904;47.814;11.134;2022-10-17T09:22:51;3.73;;;2.90;;
1811;SDS011;904;47.814;11.134;2022-10-17T09:25:23;4.00;;;2.67;;
1811;SDS011;904;47.814;11.134;2022-10-17T09:27:51;3.53;;;2.33;;
1811;SDS011;904;47.814;11.134;2022-10-17T09:30:24;3.40;;;2.37;;
1811;SDS011;904;47.814;11.134;2022-10-17T09:33:08;4.93;;;2.60;;
1811;SDS011;904;47.814;11.134;2022-10-17T09:35:37;3.97;;;2.30;;
1811;SDS011;904;47.814;11.134;2022-10-17T09:38:06;3.70;;;2.20;;
1811;SDS011;904;47.814;11.134;2022-10-17T09:40:44;3.73;;;2.40;;
1811;SDS011;904;47.814;11.134;2022-10-17T09:43:15;2.90;;;2.60;;
1811;SDS011;904;47.814;11.134;2022-10-17T09:45:44;3.57;;;2.40;;
1811;SDS011;904;47.814;11.134;2022-10-17T09:48:25;3.13;;;2.17;;
1811;SDS011;904;47.814;11.134;2022-10-17T09:50:57;2.60;;;2.30;;
1811;SDS011;904;47.814;11.134;2022-10-17T09:53:25;2.90;;;2.00;;
1811;SDS011;904;47.814;11.134;2022-10-17T09:55:59;4.60;;;2.07;;
1811;SDS011;904;47.814;11.134;2022-10-17T09:58:38;5.67;;;2.30;;
1811;SDS011;904;47.814;11.134;2022-10-17T10:01:19;3.27;;;2.40;;
1811;SDS011;904;47.814;11.134;2022-10-17T10:03:48;4.37;;;2.47;;
1811;SDS011;904;47.814;11.134;2022-10-17T10:06:33;3.50;;;2.47;;
1811;SDS011;904;47.814;11.134;2022-10-17T10:09:01;2.40;;;2.00;;
1811;SDS011;904;47.814;11.134;2022-10-17T10:11:44;5.83;;;2.70;;
1811;SDS011;904;47.814;11.134;2022-10-17T10:14:18;4.10;;;2.43;;
1811;SDS011;904;47.814;11.134;2022-10-17T10:16:48;3.00;;;2.20;;
1811;SDS011;904;47.814;11.134;2022-10-17T10:19:23;2.77;;;2.00;;
1811;SDS011;904;47.814;11.134;2022-10-17T10:21:55;4.00;;;2.50;;
1811;SDS011;904;47.814;11.134;2022-10-17T10:24:23;3.60;;;2.43;;
1811;SDS011;904;47.814;11.134;2022-10-17T10:26:53;3.00;;;2.43;;
1811;SDS011;904;47.814;11.134;2022-10-17T10:29:23;3.70;;;1.80;;
1811;SDS011;904;47.814;11.134;2022-10-17T10:32:01;2.73;;;2.07;;
1811;SDS011;904;47.814;11.134;2022-10-17T10:34:34;3.30;;;2.17;;
1811;SDS011;904;47.814;11.134;2022-10-17T10:37:28;3.27;;;2.20;;
1811;SDS011;904;47.814;11.134;2022-10-17T10:40:14;2.63;;;2.27;;
1811;SDS011;904;47.814;11.134;2022-10-17T10:42:54;2.80;;;2.10;;
1811;SDS011;904;47.814;11.134;2022-10-17T10:45:23;2.40;;;1.70;;
1811;SDS011;904;47.814;11.134;2022-10-17T10:47:53;2.53;;;1.73;;
1811;SDS011;904;47.814;11.134;2022-10-17T10:50:27;2.20;;;1.70;;
1811;SDS011;904;47.814;11.134;2022-10-17T10:53:06;2.60;;;1.80;;
1811;SDS011;904;47.814;11.134;2022-10-17T10:55:41;6.33;;;1.90;;
1811;SDS011;904;47.814;11.134;2022-10-17T10:58:19;2.30;;;1.53;;
1811;SDS011;904;47.814;11.134;2022-10-17T11:00:55;2.67;;;2.03;;
1811;SDS011;904;47.814;11.134;2022-10-17T11:03:25;2.87;;;1.97;;
1811;SDS011;904;47.814;11.134;2022-10-17T11:05:57;2.43;;;1.70;;
1811;SDS011;904;47.814;11.134;2022-10-17T11:08:33;2.40;;;1.70;;
1811;SDS011;904;47.814;11.134;2022-10-17T11:11:06;3.20;;;1.90;;
1811;SDS011;904;47.814;11.134;2022-10-17T11:13:43;2.17;;;1.90;;
1811;SDS011;904;47.814;11.134;2022-10-17T11:19:05;4.87;;;1.80;;
1811;SDS011;904;47.814;11.134;2022-10-17T11:21:40;3.67;;;2.00;;
1811;SDS011;904;47.814;11.134;2022-10-17T11:24:14;3.03;;;1.77;;
1811;SDS011;904;47.814;11.134;2022-10-17T11:26:49;2.40;;;2.20;;
1811;SDS011;904;47.814;11.134;2022-10-17T11:29:25;4.13;;;1.80;;
1811;SDS011;904;47.814;11.134;2022-10-17T11:31:56;2.90;;;1.73;;
1811;SDS011;904;47.814;11.134;2022-10-17T11:34:28;2.83;;;2.03;;
1811;SDS011;904;47.814;11.134;2022-10-17T11:36:58;3.80;;;1.90;;
1811;SDS011;904;47.814;11.134;2022-10-17T11:39:31;3.27;;;1.73;;
1811;SDS011;904;47.814;11.134;2022-10-17T11:42:06;2.50;;;1.87;;
1811;SDS011;904;47.814;11.134;2022-10-17T11:44:39;1.90;;;1.40;;
1811;SDS011;904;47.814;11.134;2022-10-17T11:47:10;4.13;;;1.77;;
1811;SDS011;904;47.814;11.134;2022-10-17T11:49:54;2.10;;;1.70;;
1811;SDS011;904;47.814;11.134;2022-10-17T11:52:27;2.97;;;1.63;;
1811;SDS011;904;47.814;11.134;2022-10-17T11:55:01;2.47;;;1.80;;
1811;SDS011;904;47.814;11.134;2022-10-17T11:57:38;3.30;;;2.00;;
1811;SDS011;904;47.814;11.134;2022-10-17T12:00:20;3.03;;;2.20;;
1811;SDS011;904;47.814;11.134;2022-10-17T12:02:56;4.30;;;1.80;;
1811;SDS011;904;47.814;11.134;2022-10-17T12:05:33;3.27;;;2.10;;
1811;SDS011;904;47.814;11.134;2022-10-17T12:08:08;2.40;;;1.77;;
1811;SDS011;904;47.814;11.134;2022-10-17T12:10:43;3.23;;;1.77;;
1811;SDS011;904;47.814;11.134;2022-10-17T12:24:52;2.53;;;1.77;;
1811;SDS011;904;47.814;11.134;2022-10-17T12:27:22;2.17;;;1.50;;
1811;SDS011;904;47.814;11.134;2022-10-17T12:30:00;2.83;;;1.47;;
1811;SDS011;904;47.814;11.134;2022-10-17T12:32:30;2.40;;;1.67;;
1811;SDS011;904;47.814;11.134;2022-10-17T12:34:57;2.70;;;1.63;;
1811;SDS011;904;47.814;11.134;2022-10-17T12:40:55;3.47;;;1.90;;
1811;SDS011;904;47.814;11.134;2022-10-17T12:43:42;4.17;;;1.80;;
1811;SDS011;904;47.814;11.134;2022-10-17T12:46:11;2.87;;;1.80;;
1811;SDS011;904;47.814;11.134;2022-10-17T12:49:02;2.90;;;1.40;;
1811;SDS011;904;47.814;11.134;2022-10-17T12:51:30;2.90;;;1.53;;
1811;SDS011;904;47.814;11.134;2022-10-17T12:54:41;3.20;;;1.70;;
1811;SDS011;904;47.814;11.134;2022-10-17T12:57:16;2.20;;;1.53;;
1811;SDS011;904;47.814;11.134;2022-10-17T12:59:46;3.10;;;1.90;;
1811;SDS011;904;47.814;11.134;2022-10-17T13:02:16;4.20;;;1.70;;
1811;SDS011;904;47.814;11.134;2022-10-17T13:04:47;2.30;;;1.67;;
1811;SDS011;904;47.814;11.134;2022-10-17T13:07:17;2.43;;;1.73;;
1811;SDS011;904;47.814;11.134;2022-10-17T13:09:46;4.10;;;1.80;;
1811;SDS011;904;47.814;11.134;2022-10-17T13:12:16;3.70;;;1.90;;
1811;SDS011;904;47.814;11.134;2022-10-17T13:14:46;5.60;;;1.90;;
1811;SDS011;904;47.814;11.134;2022-10-17T13:17:21;5.20;;;2.00;;
1811;SDS011;904;47.814;11.134;2022-10-17T13:19:50;3.63;;;2.10;;
1811;SDS011;904;47.814;11.134;2022-10-17T13:22:18;4.13;;;2.13;;
1811;SDS011;904;47.814;11.134;2022-10-17T13:24:46;4.37;;;2.43;;
1811;SDS011;904;47.814;11.134;2022-10-17T13:27:22;3.70;;;2.87;;
1811;SDS011;904;47.814;11.134;2022-10-17T13:29:51;6.80;;;2.50;;
1811;SDS011;904;47.814;11.134;2022-10-17T13:32:20;4.20;;;2.27;;
1811;SDS011;904;47.814;11.134;2022-10-17T13:37:33;3.20;;;2.30;;
1811;SDS011;904;47.814;11.134;2022-10-17T13:40:00;4.00;;;2.00;;
1811;SDS011;904;47.814;11.134;2022-10-17T13:42:28;2.50;;;1.70;;
1811;SDS011;904;47.814;11.134;2022-10-17T13:44:56;3.30;;;2.00;;
1811;SDS011;904;47.814;11.134;2022-10-17T13:47:26;4.00;;;1.90;;
1811;SDS011;904;47.814;11.134;2022-10-17T13:49:55;4.10;;;2.03;;
1811;SDS011;904;47.814;11.134;2022-10-17T13:52:26;3.10;;;1.97;;
1811;SDS011;904;47.814;11.134;2022-10-17T13:54:55;4.23;;;2.30;;
1811;SDS011;904;47.814;11.134;2022-10-17T13:57:32;2.87;;;2.03;;
1811;SDS011;904;47.814;11.134;2022-10-17T13:59:59;4.77;;;1.87;;
1811;SDS011;904;47.814;11.134;2022-10-17T14:02:30;3.60;;;2.30;;
1811;SDS011;904;47.814;11.134;2022-10-17T14:04:59;2.70;;;1.80;;
1811;SDS011;904;47.814;11.134;2022-10-17T14:07:29;3.20;;;2.07;;
1811;SDS011;904;47.814;11.134;2022-10-17T14:10:02;2.70;;;1.73;;
1811;SDS011;904;47.814;11.134;2022-10-17T14:12:30;2.50;;;1.60;;
1811;SDS011;904;47.814;11.134;2022-10-17T14:14:58;2.50;;;1.80;;
1811;SDS011;904;47.814;11.134;2022-10-17T14:17:30;3.20;;;2.10;;
1811;SDS011;904;47.814;11.134;2022-10-17T14:19:58;4.43;;;1.87;;
1811;SDS011;904;47.814;11.134;2022-10-17T14:22:29;5.67;;;1.90;;
1811;SDS011;904;47.814;11.134;2022-10-17T14:25:00;4.00;;;1.83;;
1811;SDS011;904;47.814;11.134;2022-10-17T14:27:28;3.67;;;2.30;;
1811;SDS011;904;47.814;11.134;2022-10-17T14:29:59;3.30;;;1.90;;
1811;SDS011;904;47.814;11.134;2022-10-17T14:32:28;3.30;;;2.07;;
1811;SDS011;904;47.814;11.134;2022-10-17T14:34:57;3.43;;;2.13;;
1811;SDS011;904;47.814;11.134;2022-10-17T14:37:31;4.33;;;2.03;;
1811;SDS011;904;47.814;11.134;2022-10-17T14:40:04;3.10;;;2.27;;
1811;SDS011;904;47.814;11.134;2022-10-17T14:42:32;3.70;;;2.10;;
1811;SDS011;904;47.814;11.134;2022-10-17T14:45:06;3.20;;;1.93;;
1811;SDS011;904;47.814;11.134;2022-10-17T14:47:34;2.90;;;2.00;;
1811;SDS011;904;47.814;11.134;2022-10-17T14:50:03;2.80;;;1.80;;
1811;SDS011;904;47.814;11.134;2022-10-17T14:52:33;5.70;;;2.50;;
1811;SDS011;904;47.814;11.134;2022-10-17T14:55:12;3.60;;;2.10;;
1811;SDS011;904;47.814;11.134;2022-10-17T14:57:47;3.50;;;1.90;;
1811;SDS011;904;47.814;11.134;2022-10-17T15:00:15;2.83;;;1.80;;
1811;SDS011;904;47.814;11.134;2022-10-17T15:02:44;3.10;;;2.10;;
1811;SDS011;904;47.814;11.134;2022-10-17T15:05:12;5.10;;;2.50;;
1811;SDS011;904;47.814;11.134;2022-10-17T15:07:41;2.80;;;1.60;;
1811;SDS011;904;47.814;11.134;2022-10-17T15:10:15;4.10;;;2.00;;
1811;SDS011;904;47.814;11.134;2022-10-17T15:12:50;3.20;;;1.80;;
1811;SDS011;904;47.814;11.134;2022-10-17T15:15:17;5.47;;;2.00;;
1811;SDS011;904;47.814;11.134;2022-10-17T15:17:44;9.93;;;2.50;;
1811;SDS011;904;47.814;11.134;2022-10-17T15:20:11;2.90;;;2.03;;
1811;SDS011;904;47.814;11.134;2022-10-17T15:22:42;4.07;;;2.10;;
1811;SDS011;904;47.814;11.134;2022-10-17T15:25:09;2.90;;;1.90;;
1811;SDS011;904;47.814;11.134;2022-10-17T15:27:36;3.03;;;1.87;;
1811;SDS011;904;47.814;11.134;2022-10-17T15:30:03;4.33;;;1.97;;
1811;SDS011;904;47.814;11.134;2022-10-17T15:32:40;3.10;;;1.77;;
1811;SDS011;904;47.814;11.134;2022-10-17T15:35:07;10.23;;;2.50;;
1811;SDS011;904;47.814;11.134;2022-10-17T15:37:34;3.67;;;2.60;;
1811;SDS011;904;47.814;11.134;2022-10-17T15:40:04;5.10;;;2.60;;
1811;SDS011;904;47.814;11.134;2022-10-17T15:42:31;6.03;;;2.20;;
1811;SDS011;904;47.814;11.134;2022-10-17T15:44:58;4.40;;;2.80;;
1811;SDS011;904;47.814;11.134;2022-10-17T15:47:25;3.43;;;2.10;;
1811;SDS011;904;47.814;11.134;2022-10-17T15:49:55;10.40;;;2.97;;
1811;SDS011;904;47.814;11.134;2022-10-17T15:52:22;4.90;;;2.90;;
1811;SDS011;904;47.814;11.134;2022-10-17T15:54:49;5.87;;;2.80;;
1811;SDS011;904;47.814;11.134;2022-10-17T15:57:18;4.30;;;2.90;;
1811;SDS011;904;47.814;11.134;2022-10-17T15:59:47;7.90;;;3.10;;
1811;SDS011;904;47.814;11.134;2022-10-17T16:02:15;14.53;;;5.63;;
1811;SDS011;904;47.814;11.134;2022-10-17T16:04:44;9.23;;;4.20;;